Huvudsida
METAR-TAF:

METAR-TAF

Flygplatser :

Malmö Airport

Malmö, Sverige

latitud: 55-33N, longitud: 013-22E, höjd: 106 m

Aktuellt väderrapport

Denna rapport gjordes för 14 minuter sedan, klockan 01:20 UTC
Vind 2 kt från ost
Temperatur 8°C
Fuktighet 100%
Tryck 1022 hPa
Sikt 10 km eller mer
Inga moln under 1 500 m eller inga cumulonimbus

METAR: ESMS 220120Z 10002KT CAVOK 08/08 Q1022

Tid: 03:34 (01:34 UTC)

Väderprognos

Denna rapport gjordes för 2 timmar och 34 minuter sedan, klockan 23:00 UTC
Prognos gäller från 22 kl. 00 UTC till 22 kl. 24 UTC
Vind 2 kt varierande vindriktning
Sikt 10 km eller mer
Spridda moln på en höjd av 4000 ft
Blir
från 22 kl. 08 UTC till 22 kl. 10 UTC
Vind 10 kt från syd

TAF: ESMS 212300Z 2200/2224 VRB02KT 9999 SCT040 BECMG 2208/2210 18010KT

Aktuella väderrapporter och prognoser från 4000 flygplatser (METAR- och TAF-rapporter).

De tillgängliga stationerna syns som gula och röda prickar på kartan.

För musen över prickarna för att se namnen på stationerna.

Klicka sedan för att få väderrapporter och prognoser.

För att ändra kartan: Klicka på de gröna knapparna med ett svart kors på för att zooma in; den gröna knappen med ett streck på för att zooma ut; eller på de gröna pilarna för angränsande kartor.


METAR-TAF: